Time;durP1;ratioP1;P1;durP2;ratioP2;P2;SDS_P1;SDS_P2;PMS_P1;PMS_P2;Temp;Humidity;BMP_temperature;BMP_pressure;BME280_temperature;BME280_humidity;BME280_pressure;Samples;Min_cycle;Max_cycle;Signal;HPM_P1;HPM_P2
2022/05/01 00:00:41;;;;;;;19.30;12.93;;;16.90;59.00;;;;;;5008438;28;20453;-87
2022/05/01 00:03:08;;;;;;;15.97;12.50;;;16.90;59.20;;;;;;5025857;28;20451;-87
2022/05/01 00:05:35;;;;;;;17.50;13.10;;;16.90;58.80;;;;;;5027027;28;20473;-87
2022/05/01 00:08:04;;;;;;;17.77;12.90;;;16.90;58.60;;;;;;5029533;28;20461;-87
2022/05/01 00:10:31;;;;;;;17.53;12.10;;;16.90;58.60;;;;;;5021490;28;20465;-87
2022/05/01 00:12:59;;;;;;;16.53;13.00;;;16.90;58.20;;;;;;5036971;28;20941;-87
2022/05/01 00:15:27;;;;;;;16.97;13.10;;;16.90;58.30;;;;;;5035870;28;20462;-86
2022/05/01 00:17:55;;;;;;;17.87;12.00;;;16.90;58.60;;;;;;5021958;28;20476;-86
2022/05/01 00:20:22;;;;;;;21.00;13.83;;;16.80;58.40;;;;;;5009292;28;20447;-87
2022/05/01 00:22:48;;;;;;;19.40;12.97;;;16.80;58.80;;;;;;5024870;28;20688;-87
2022/05/01 00:25:15;;;;;;;17.90;13.13;;;16.80;58.60;;;;;;5034754;28;20470;-87
2022/05/01 00:27:42;;;;;;;20.00;14.60;;;16.80;58.50;;;;;;5036285;28;20462;-87
2022/05/01 00:30:12;;;;;;;18.67;14.00;;;16.80;58.50;;;;;;5013748;28;20858;-87
2022/05/01 00:38:10;;;;;;;18.07;14.30;;;16.80;58.50;;;;;;5005537;28;20448;-86
2022/05/01 00:40:37;;;;;;;17.87;13.13;;;16.70;58.60;;;;;;5027408;28;20485;-86
2022/05/01 00:43:05;;;;;;;24.00;14.27;;;16.70;58.70;;;;;;5034486;28;20457;-86
2022/05/01 00:45:33;;;;;;;21.20;13.73;;;16.60;58.70;;;;;;5020117;28;20857;-86
2022/05/01 00:48:00;;;;;;;17.67;13.10;;;16.60;58.60;;;;;;5035846;28;20793;-86
2022/05/01 00:50:27;;;;;;;18.70;13.53;;;16.70;58.60;;;;;;5034266;28;21308;-86
2022/05/01 00:52:54;;;;;;;16.00;13.40;;;16.70;58.80;;;;;;5019673;28;20447;-83
2022/05/01 00:55:22;;;;;;;16.27;12.50;;;16.60;58.90;;;;;;5020481;28;20465;-87
2022/05/01 00:57:50;;;;;;;18.03;13.17;;;16.60;58.90;;;;;;5034294;28;20455;-86
2022/05/01 01:00:19;;;;;;;17.40;12.30;;;16.60;59.10;;;;;;5019274;28;20448;-86
2022/05/01 01:02:50;;;;;;;16.57;12.77;;;16.60;58.90;;;;;;5017554;28;20564;-87
2022/05/01 01:05:17;;;;;;;17.93;12.83;;;16.60;58.90;;;;;;5036489;28;20915;-86
2022/05/01 01:07:44;;;;;;;19.77;13.27;;;16.60;58.70;;;;;;5038721;28;20440;-86
2022/05/01 01:10:11;;;;;;;18.70;13.50;;;16.60;58.80;;;;;;5031562;28;20446;-87
2022/05/01 01:12:57;;;;;;;17.70;12.27;;;16.50;59.10;;;;;;5017413;28;20540;-86
2022/05/01 01:15:25;;;;;;;21.30;13.53;;;16.50;59.10;;;;;;5033984;28;20465;-87
2022/05/01 01:17:54;;;;;;;22.63;14.50;;;16.50;59.30;;;;;;5034389;28;20462;-86
2022/05/01 01:20:23;;;;;;;20.63;14.43;;;16.50;59.00;;;;;;5038865;28;20451;-86
2022/05/01 01:22:54;;;;;;;18.90;13.70;;;16.50;58.70;;;;;;5036126;28;20987;-86
2022/05/01 01:25:23;;;;;;;19.53;14.03;;;16.50;58.30;;;;;;5020550;28;21547;-86
2022/05/01 01:27:50;;;;;;;23.27;14.90;;;16.40;58.30;;;;;;5016392;28;20985;-86
2022/05/01 01:33:04;;;;;;;20.30;13.63;;;16.50;58.10;;;;;;5022626;28;20446;-86
2022/05/01 01:35:36;;;;;;;16.70;13.90;;;16.50;57.90;;;;;;5034336;28;20549;-86
2022/05/01 01:38:05;;;;;;;16.97;13.90;;;16.40;57.50;;;;;;5007888;28;20454;-87
2022/05/01 01:40:38;;;;;;;20.57;14.47;;;16.40;57.50;;;;;;5018787;28;20544;-87
2022/05/01 01:43:06;;;;;;;18.20;13.70;;;16.40;57.40;;;;;;5017350;28;20574;-87
2022/05/01 01:45:33;;;;;;;16.73;12.70;;;16.30;57.60;;;;;;5024810;28;20518;-87
2022/05/01 01:48:09;;;;;;;17.90;12.70;;;16.30;57.60;;;;;;5015944;28;20466;-87
2022/05/01 01:50:36;;;;;;;18.50;13.20;;;16.30;57.50;;;;;;5037475;28;20948;-87
2022/05/01 01:53:05;;;;;;;21.10;13.20;;;16.30;57.60;;;;;;5025188;28;20791;-86
2022/05/01 01:55:32;;;;;;;20.97;14.70;;;16.30;57.60;;;;;;5035704;28;20911;-87
2022/05/01 01:57:59;;;;;;;18.93;12.70;;;16.30;57.60;;;;;;5030588;28;20493;-87
2022/05/01 02:00:27;;;;;;;19.30;12.90;;;16.30;57.40;;;;;;5000849;28;20442;-87
2022/05/01 02:02:57;;;;;;;19.80;13.70;;;16.30;57.20;;;;;;5034062;28;20454;-84
2022/05/01 02:05:25;;;;;;;21.93;14.37;;;16.20;57.10;;;;;;5012850;28;20512;-87
2022/05/01 02:07:52;;;;;;;16.40;12.67;;;16.20;57.10;;;;;;5030673;28;20478;-86
2022/05/01 02:10:20;;;;;;;17.13;12.37;;;16.20;57.40;;;;;;5017234;28;20573;-87
2022/05/01 02:12:47;;;;;;;16.60;12.70;;;16.20;57.50;;;;;;5016869;28;20993;-87
2022/05/01 02:15:14;;;;;;;17.10;13.57;;;16.20;57.60;;;;;;5032760;28;20840;-87
2022/05/01 02:17:41;;;;;;;18.20;13.17;;;16.20;57.30;;;;;;4988634;28;20464;-86
2022/05/01 02:20:10;;;;;;;21.47;14.17;;;16.20;57.30;;;;;;4990920;28;20457;-87
2022/05/01 02:22:38;;;;;;;17.70;12.93;;;16.20;57.10;;;;;;5011448;28;20480;-87
2022/05/01 02:25:07;;;;;;;18.60;12.67;;;16.20;57.20;;;;;;5036239;28;21155;-85
2022/05/01 02:27:36;;;;;;;19.93;13.30;;;16.20;57.40;;;;;;5018325;28;20941;-86
2022/05/01 02:30:03;;;;;;;16.17;12.57;;;16.20;57.50;;;;;;5023919;28;20466;-86
2022/05/01 02:32:30;;;;;;;18.40;12.83;;;16.30;57.70;;;;;;5009492;28;20446;-86
2022/05/01 02:34:57;;;;;;;15.87;12.03;;;16.30;57.70;;;;;;5005579;28;20680;-86
2022/05/01 02:37:24;;;;;;;17.50;12.37;;;15.90;57.40;;;;;;5023290;28;20819;-87
2022/05/01 02:39:53;;;;;;;16.87;12.47;;;15.90;57.90;;;;;;5031927;28;20446;-86
2022/05/01 02:42:20;;;;;;;17.33;12.50;;;16.00;58.10;;;;;;5001605;28;20905;-86
2022/05/01 02:44:48;;;;;;;19.60;12.80;;;16.00;57.70;;;;;;5032788;28;20930;-87
2022/05/01 02:47:15;;;;;;;17.93;12.77;;;16.00;57.60;;;;;;5033004;28;20967;-87
2022/05/01 02:49:42;;;;;;;21.23;14.00;;;16.00;57.70;;;;;;5018640;28;20452;-87
2022/05/01 02:52:10;;;;;;;18.93;12.33;;;16.10;57.80;;;;;;5031812;28;21199;-87
2022/05/01 02:54:37;;;;;;;18.77;13.10;;;16.10;57.60;;;;;;5036845;28;20585;-86
2022/05/01 02:57:05;;;;;;;18.60;12.90;;;16.00;57.60;;;;;;5019946;28;20446;-87
2022/05/01 02:59:32;;;;;;;16.30;12.77;;;16.00;57.70;;;;;;5018646;28;21190;-86
2022/05/01 03:02:01;;;;;;;22.10;13.60;;;16.00;57.70;;;;;;5016603;28;20545;-86
2022/05/01 03:04:27;;;;;;;18.60;13.27;;;16.00;57.80;;;;;;5034165;28;20541;-87
2022/05/01 03:06:56;;;;;;;18.17;12.93;;;16.00;57.90;;;;;;5021383;28;20484;-86
2022/05/01 03:09:23;;;;;;;18.97;12.30;;;16.00;57.90;;;;;;5022590;28;20450;-86
2022/05/01 03:11:50;;;;;;;19.03;13.00;;;16.00;57.70;;;;;;5019770;28;20454;-86
2022/05/01 03:14:17;;;;;;;19.80;14.00;;;16.00;57.70;;;;;;5020024;28;20524;-85
2022/05/01 03:16:44;;;;;;;16.60;12.57;;;16.00;57.60;;;;;;5036115;28;20477;-86
2022/05/01 03:22:13;;;;;;;21.77;13.43;;;16.00;57.40;;;;;;5013471;28;21327;-87
2022/05/01 03:24:40;;;;;;;18.97;14.33;;;16.00;57.50;;;;;;5017691;28;20540;-86
2022/05/01 03:27:08;;;;;;;20.53;15.43;;;16.00;57.80;;;;;;5024387;28;20469;-86
2022/05/01 03:29:35;;;;;;;28.97;15.77;;;16.00;57.80;;;;;;5031390;28;20458;-86
2022/05/01 03:32:07;;;;;;;22.87;15.60;;;15.90;57.80;;;;;;5033483;28;20462;-86
2022/05/01 03:34:37;;;;;;;22.37;13.93;;;16.00;57.80;;;;;;5034874;28;20466;-86
2022/05/01 03:37:07;;;;;;;24.20;15.43;;;16.00;57.80;;;;;;4989122;28;20972;-86
2022/05/01 03:39:34;;;;;;;24.30;15.70;;;16.00;57.80;;;;;;5008208;28;20480;-86
2022/05/01 03:42:02;;;;;;;29.63;17.20;;;15.90;57.70;;;;;;5016292;28;20456;-86
2022/05/01 03:44:29;;;;;;;22.43;16.80;;;15.60;57.50;;;;;;5016221;28;20461;-86
2022/05/01 03:46:56;;;;;;;27.00;17.60;;;15.60;57.80;;;;;;4985267;28;20462;-86
2022/05/01 03:49:23;;;;;;;24.13;15.50;;;15.70;57.80;;;;;;5040794;28;20509;-86
2022/05/01 03:51:51;;;;;;;24.43;15.83;;;15.70;57.60;;;;;;5037370;28;20455;-85
2022/05/01 03:54:18;;;;;;;24.30;17.30;;;15.70;57.70;;;;;;5037565;28;20991;-87
2022/05/01 03:56:45;;;;;;;31.00;16.63;;;15.70;57.60;;;;;;5023503;28;20482;-84
2022/05/01 03:59:12;;;;;;;33.30;16.23;;;15.70;58.00;;;;;;5002501;28;20472;-87
2022/05/01 04:01:39;;;;;;;25.27;17.40;;;15.80;58.60;;;;;;5026420;28;20465;-86
2022/05/01 04:04:06;;;;;;;27.90;16.93;;;15.80;58.00;;;;;;5037233;28;21021;-86
2022/05/01 04:06:33;;;;;;;23.53;15.70;;;15.80;57.70;;;;;;5038206;28;20992;-86
2022/05/01 04:09:02;;;;;;;22.67;14.93;;;15.80;57.80;;;;;;5035877;28;20942;-87
2022/05/01 04:11:29;;;;;;;25.47;15.80;;;15.80;57.90;;;;;;5007534;28;20491;-87
2022/05/01 04:13:55;;;;;;;24.43;17.03;;;15.80;58.00;;;;;;5024463;28;21029;-85
2022/05/01 04:16:22;;;;;;;23.90;16.40;;;15.80;57.90;;;;;;5022891;28;21079;-87
2022/05/01 04:18:50;;;;;;;29.53;17.43;;;15.90;57.90;;;;;;4992462;28;20447;-83
2022/05/01 04:21:17;;;;;;;26.53;17.50;;;15.90;58.20;;;;;;5037719;28;20537;-87
2022/05/01 04:23:43;;;;;;;21.30;14.93;;;15.90;57.60;;;;;;5005428;28;20462;-84
2022/05/01 04:26:12;;;;;;;22.33;15.33;;;15.90;57.70;;;;;;5035954;28;20485;-86
2022/05/01 04:28:39;;;;;;;20.43;15.60;;;15.90;57.50;;;;;;5009321;28;20573;-86
2022/05/01 04:31:27;;;;;;;19.70;14.13;;;15.90;57.30;;;;;;5003054;28;20533;-87
2022/05/01 04:33:54;;;;;;;25.37;15.37;;;15.90;57.20;;;;;;5002792;28;20450;-85
2022/05/01 04:36:21;;;;;;;21.30;14.43;;;15.90;57.00;;;;;;4998009;28;20984;-86
2022/05/01 04:38:48;;;;;;;22.37;13.90;;;15.80;57.00;;;;;;5039272;28;21274;-86
2022/05/01 04:41:18;;;;;;;23.60;15.23;;;15.80;57.00;;;;;;5025027;28;20450;-87
2022/05/01 04:43:45;;;;;;;29.23;16.03;;;15.80;56.90;;;;;;5034477;28;20447;-86
2022/05/01 04:46:12;;;;;;;26.90;14.90;;;15.70;56.60;;;;;;5020476;28;20699;-86
2022/05/01 04:48:39;;;;;;;20.67;15.33;;;15.70;56.80;;;;;;5019554;28;20471;-86
2022/05/01 04:51:06;;;;;;;20.23;13.83;;;15.70;57.10;;;;;;5002431;28;20626;-86
2022/05/01 04:53:33;;;;;;;22.90;14.93;;;15.70;57.10;;;;;;5026201;28;20445;-87
2022/05/01 04:57:04;;;;;;;25.27;14.03;;;15.70;57.20;;;;;;5017329;28;20574;-87
2022/05/01 04:58:49;;;;;;;20.60;14.60;;;15.70;57.10;;;;;;5003833;28;20548;-87
2022/05/01 05:01:17;;;;;;;22.30;14.80;;;15.70;57.00;;;;;;5021191;28;20453;-87
2022/05/01 05:03:45;;;;;;;24.23;15.87;;;15.70;57.30;;;;;;5042161;28;20465;-87
2022/05/01 05:06:12;;;;;;;26.27;16.70;;;15.70;57.60;;;;;;5021163;28;20512;-87
2022/05/01 05:11:19;;;;;;;22.27;16.10;;;15.70;58.10;;;;;;4991455;28;20441;-87
2022/05/01 05:13:46;;;;;;;22.20;14.60;;;15.70;58.40;;;;;;5034711;28;20856;-86
2022/05/01 05:16:15;;;;;;;25.20;17.33;;;15.70;58.50;;;;;;5036020;28;20470;-87
2022/05/01 05:18:42;;;;;;;23.50;15.53;;;15.70;58.00;;;;;;5001874;28;21298;-86
2022/05/01 05:21:09;;;;;;;24.73;15.00;;;15.60;57.70;;;;;;5020281;28;20466;-87
2022/05/01 05:23:36;;;;;;;25.83;16.43;;;15.70;58.20;;;;;;5019906;28;20453;-87
2022/05/01 05:26:03;;;;;;;21.93;16.10;;;15.70;58.40;;;;;;5002430;28;20462;-87
2022/05/01 05:28:30;;;;;;;25.20;14.93;;;15.70;58.10;;;;;;5020517;28;21306;-87
2022/05/01 05:30:57;;;;;;;26.07;15.50;;;15.60;58.20;;;;;;5024637;28;20544;-87
2022/05/01 05:33:25;;;;;;;21.10;14.60;;;15.70;58.20;;;;;;5034666;28;20558;-87
2022/05/01 05:35:52;;;;;;;23.73;14.97;;;15.70;58.20;;;;;;5035258;28;20974;-87
2022/05/01 05:38:19;;;;;;;16.57;13.50;;;15.70;58.40;;;;;;5012169;28;20450;-87
2022/05/01 05:40:46;;;;;;;17.03;12.77;;;15.80;58.60;;;;;;5035745;28;20454;-86
2022/05/01 05:43:13;;;;;;;21.13;14.10;;;15.60;58.90;;;;;;5020195;28;20449;-85
2022/05/01 05:45:40;;;;;;;19.33;13.60;;;15.70;59.10;;;;;;5025992;28;20511;-87
2022/05/01 05:48:07;;;;;;;16.57;12.83;;;15.80;59.00;;;;;;5026868;28;20493;-86
2022/05/01 05:50:36;;;;;;;18.67;13.27;;;15.80;58.60;;;;;;4988067;28;20825;-86
2022/05/01 05:53:03;;;;;;;14.33;11.30;;;15.60;58.90;;;;;;5008826;28;20448;-87
2022/05/01 05:55:33;;;;;;;16.27;11.40;;;15.60;59.00;;;;;;5034737;28;20480;-86
2022/05/01 05:58:00;;;;;;;20.30;14.60;;;15.60;59.10;;;;;;5001745;28;20453;-87
2022/05/01 06:00:27;;;;;;;16.87;12.17;;;15.70;59.20;;;;;;5015932;28;20884;-87
2022/05/01 06:02:54;;;;;;;14.90;11.60;;;15.70;59.00;;;;;;5029088;28;20477;-84
2022/05/01 06:05:21;;;;;;;17.17;12.53;;;15.70;59.40;;;;;;5002838;28;20466;-85
2022/05/01 06:07:49;;;;;;;18.53;12.97;;;15.80;58.90;;;;;;5028532;28;20482;-86
2022/05/01 06:10:16;;;;;;;17.47;14.27;;;15.60;59.10;;;;;;4986240;28;20453;-87
2022/05/01 06:12:44;;;;;;;17.70;14.07;;;15.70;59.60;;;;;;5032679;28;20449;-86
2022/05/01 06:15:11;;;;;;;21.73;12.50;;;15.80;59.30;;;;;;5012356;28;20477;-87
2022/05/01 06:17:39;;;;;;;24.10;17.80;;;15.80;58.70;;;;;;5004970;28;20561;-86
2022/05/01 06:20:07;;;;;;;19.33;14.30;;;15.80;58.60;;;;;;5031007;28;20449;-87
2022/05/01 06:22:34;;;;;;;22.80;12.87;;;15.70;58.50;;;;;;5015896;28;20445;-86
2022/05/01 06:25:02;;;;;;;17.37;12.37;;;15.60;58.60;;;;;;5034365;28;20477;-87
2022/05/01 06:27:29;;;;;;;15.27;12.40;;;15.60;59.00;;;;;;5023372;28;20462;-86
2022/05/01 06:29:56;;;;;;;19.77;12.00;;;15.60;58.90;;;;;;5031069;28;20472;-85
2022/05/01 06:32:23;;;;;;;15.80;11.93;;;15.70;58.90;;;;;;5018846;28;20458;-86
2022/05/01 06:34:52;;;;;;;16.87;13.63;;;15.60;58.70;;;;;;5017133;28;20470;-86
2022/05/01 06:37:19;;;;;;;18.50;13.10;;;15.40;59.50;;;;;;5014187;28;20450;-86
2022/05/01 06:39:46;;;;;;;16.80;11.83;;;15.50;59.70;;;;;;5029067;28;20450;-86
2022/05/01 06:42:15;;;;;;;16.93;12.73;;;15.50;59.40;;;;;;5037151;28;20449;-87
2022/05/01 06:44:42;;;;;;;19.50;11.97;;;15.60;59.40;;;;;;5027037;28;21400;-87
2022/05/01 06:47:09;;;;;;;16.80;12.50;;;15.70;58.90;;;;;;4992337;28;20932;-87
2022/05/01 06:49:36;;;;;;;14.03;10.90;;;15.80;58.80;;;;;;5039900;28;20454;-86
2022/05/01 06:52:03;;;;;;;16.80;11.27;;;15.90;58.40;;;;;;5024689;28;20485;-86
2022/05/01 06:54:31;;;;;;;20.60;11.30;;;15.90;58.30;;;;;;5023528;28;20465;-88
2022/05/01 06:56:57;;;;;;;17.27;12.60;;;15.90;58.50;;;;;;5019802;28;21015;-86
2022/05/01 06:59:26;;;;;;;18.70;12.10;;;16.00;58.40;;;;;;5038986;28;21079;-87
2022/05/01 07:01:53;;;;;;;19.67;14.50;;;15.90;58.20;;;;;;5011616;28;20454;-87
2022/05/01 07:04:20;;;;;;;15.37;11.93;;;15.70;58.70;;;;;;5035266;28;20559;-87
2022/05/01 07:06:47;;;;;;;17.07;12.63;;;15.60;59.00;;;;;;5019748;28;20457;-86
2022/05/01 07:09:14;;;;;;;15.63;11.67;;;15.40;58.50;;;;;;4993899;28;21725;-87
2022/05/01 07:11:41;;;;;;;15.10;11.20;;;15.40;58.90;;;;;;5015774;28;20508;-86
2022/05/01 07:14:08;;;;;;;18.60;11.90;;;15.70;59.50;;;;;;5021478;28;20454;-88
2022/05/01 07:16:36;;;;;;;16.27;11.60;;;16.00;58.30;;;;;;4988926;28;20446;-87
2022/05/01 07:19:03;;;;;;;43.60;24.50;;;16.40;57.70;;;;;;5033293;28;20446;-87
2022/05/01 07:21:30;;;;;;;26.50;16.63;;;16.50;56.20;;;;;;5003610;28;20458;-87
2022/05/01 07:23:57;;;;;;;63.43;31.20;;;16.40;55.60;;;;;;5014415;28;20463;-87
2022/05/01 07:26:25;;;;;;;21.50;13.70;;;16.40;55.70;;;;;;5018840;28;20484;-88
2022/05/01 07:28:52;;;;;;;18.00;14.10;;;16.40;56.90;;;;;;5000994;28;20471;-87
2022/05/01 07:31:19;;;;;;;18.43;12.50;;;16.40;55.60;;;;;;5031950;28;20860;-87
2022/05/01 07:33:47;;;;;;;18.00;14.07;;;16.50;56.90;;;;;;5002825;28;20476;-88
2022/05/01 07:36:14;;;;;;;15.77;11.97;;;16.80;56.60;;;;;;5015589;28;20477;-88
2022/05/01 07:38:41;;;;;;;12.57;10.43;;;16.60;55.30;;;;;;5007493;28;20881;-86
2022/05/01 07:41:08;;;;;;;15.10;11.80;;;16.40;55.60;;;;;;5033270;28;20965;-89
2022/05/01 07:43:36;;;;;;;13.17;10.83;;;16.70;56.50;;;;;;5016521;28;20533;-88
2022/05/01 07:46:03;;;;;;;15.07;11.70;;;16.80;56.00;;;;;;5002587;28;20454;-87
2022/05/01 07:48:29;;;;;;;15.20;11.20;;;16.90;56.40;;;;;;5021439;28;20556;-87
2022/05/01 07:50:58;;;;;;;16.23;11.30;;;16.80;56.10;;;;;;5019496;28;20463;-86
2022/05/01 07:53:25;;;;;;;17.17;11.73;;;16.80;55.30;;;;;;5029222;28;20585;-88
2022/05/01 07:55:52;;;;;;;13.50;10.70;;;16.70;56.00;;;;;;5025370;28;20463;-85
2022/05/01 07:58:20;;;;;;;16.27;10.37;;;17.00;56.20;;;;;;5019898;28;20497;-90
2022/05/01 08:00:48;;;;;;;16.33;10.97;;;16.90;55.40;;;;;;5008583;28;20862;-88
2022/05/01 08:06:00;;;;;;;13.90;11.40;;;17.30;55.00;;;;;;5034073;28;21024;-91
2022/05/01 08:08:33;;;;;;;12.77;10.27;;;16.70;54.60;;;;;;5017119;28;20482;-88
2022/05/01 08:11:00;;;;;;;15.00;10.60;;;16.90;55.50;;;;;;5001008;28;20461;-88
2022/05/01 08:13:27;;;;;;;12.30;10.27;;;17.00;55.40;;;;;;5017140;28;20469;-88
2022/05/01 08:15:53;;;;;;;14.63;10.37;;;17.30;55.40;;;;;;5023040;28;20470;-89
2022/05/01 08:21:07;;;;;;;17.17;11.20;;;17.50;54.50;;;;;;5012964;28;20443;-88
2022/05/01 08:23:36;;;;;;;10.50;9.10;;;17.60;54.00;;;;;;4997715;28;20958;-88
2022/05/01 08:26:03;;;;;;;14.00;10.30;;;17.60;53.80;;;;;;5022227;28;20498;-88
2022/05/01 08:28:31;;;;;;;21.30;12.00;;;17.60;52.80;;;;;;5033459;28;20475;-88
2022/05/01 08:30:58;;;;;;;15.03;10.37;;;17.80;53.70;;;;;;5020228;28;20770;-87
2022/05/01 08:33:25;;;;;;;15.43;10.20;;;17.80;52.70;;;;;;5005491;28;20817;-87
2022/05/01 08:35:52;;;;;;;11.57;9.40;;;17.80;53.20;;;;;;4999085;28;20470;-88
2022/05/01 08:38:21;;;;;;;15.00;11.33;;;17.90;52.60;;;;;;5003267;28;21295;-88
2022/05/01 08:40:49;;;;;;;16.13;9.67;;;17.90;53.30;;;;;;5014704;28;21030;-89
2022/05/01 08:43:17;;;;;;;18.10;10.10;;;18.10;53.00;;;;;;5036079;28;20867;-88
2022/05/01 08:45:51;;;;;;;13.10;10.03;;;18.10;53.20;;;;;;4999716;28;20462;-88
2022/05/01 08:48:25;;;;;;;17.77;9.43;;;18.20;53.70;;;;;;4997381;28;20473;-88
2022/05/01 08:50:55;;;;;;;12.30;9.00;;;18.20;52.20;;;;;;5004182;28;20462;-86
2022/05/01 08:53:24;;;;;;;29.00;16.63;;;17.80;51.00;;;;;;5006813;28;20453;-89
2022/05/01 08:55:51;;;;;;;15.20;10.80;;;17.80;52.70;;;;;;5019652;28;20474;-88
2022/05/01 08:58:19;;;;;;;29.60;18.07;;;18.10;53.50;;;;;;5020718;28;20449;-88
2022/05/01 09:00:49;;;;;;;12.30;10.40;;;18.20;51.40;;;;;;5023868;28;20533;-87
2022/05/01 09:03:17;;;;;;;14.43;10.47;;;18.30;51.00;;;;;;5037734;28;20457;-87
2022/05/01 09:05:45;;;;;;;14.23;11.10;;;18.50;52.40;;;;;;5036781;28;20885;-88
2022/05/01 09:08:12;;;;;;;12.17;9.63;;;18.60;52.40;;;;;;5027980;28;20470;-88
2022/05/01 09:10:43;;;;;;;12.33;10.33;;;18.30;49.80;;;;;;5020565;28;20458;-87
2022/05/01 09:13:09;;;;;;;14.17;10.57;;;17.90;49.80;;;;;;5009835;28;21036;-87
2022/05/01 09:15:40;;;;;;;16.30;11.70;;;18.00;51.20;;;;;;4995202;28;21032;-87
2022/05/01 09:18:08;;;;;;;20.30;14.90;;;18.10;50.80;;;;;;5024723;28;21446;-87
2022/05/01 09:20:38;;;;;;;23.67;18.97;;;18.00;50.60;;;;;;5022228;28;20462;-87
2022/05/01 09:23:07;;;;;;;15.30;12.30;;;17.90;51.40;;;;;;5047294;28;20949;-88
2022/05/01 09:25:34;;;;;;;12.80;10.47;;;18.20;53.00;;;;;;5010947;28;20457;-88
2022/05/01 09:28:20;;;;;;;17.27;11.97;;;18.20;51.00;;;;;;5004444;28;20459;-87
2022/05/01 09:30:48;;;;;;;20.80;13.17;;;18.50;51.80;;;;;;4994689;28;20538;-88
2022/05/01 09:33:19;;;;;;;14.50;12.30;;;18.50;48.50;;;;;;5026472;28;20445;-88
2022/05/01 09:35:46;;;;;;;15.10;12.80;;;18.20;48.90;;;;;;5034904;28;21026;-87
2022/05/01 09:38:18;;;;;;;13.60;11.20;;;18.40;49.90;;;;;;5043525;28;21018;-88
2022/05/01 09:40:46;;;;;;;13.67;11.40;;;18.30;48.80;;;;;;5027515;28;20520;-89
2022/05/01 09:43:34;;;;;;;17.47;11.87;;;18.40;50.10;;;;;;5022887;28;20457;-87
2022/05/01 09:46:15;;;;;;;14.70;10.37;;;18.40;49.20;;;;;;4995095;28;20477;-87
2022/05/01 09:48:43;;;;;;;16.00;11.43;;;18.50;49.70;;;;;;5005454;28;20472;-87
2022/05/01 09:51:18;;;;;;;14.20;11.10;;;18.70;50.30;;;;;;5037556;28;20474;-88
2022/05/01 09:53:46;;;;;;;14.00;11.73;;;19.10;50.90;;;;;;5023384;28;20442;-88
2022/05/01 09:56:13;;;;;;;14.40;12.47;;;19.00;47.80;;;;;;5014655;28;20461;-89
2022/05/01 09:58:43;;;;;;;15.90;11.80;;;18.80;48.10;;;;;;5023427;28;20453;-87
2022/05/01 10:01:12;;;;;;;15.83;12.07;;;18.70;47.90;;;;;;5045270;28;20442;-87
2022/05/01 10:03:45;;;;;;;12.60;10.43;;;18.90;46.90;;;;;;5011463;28;20449;-89
2022/05/01 10:06:14;;;;;;;13.40;11.70;;;18.70;48.50;;;;;;5024681;28;20477;-87
2022/05/01 10:08:44;;;;;;;14.73;11.80;;;18.60;48.40;;;;;;5020998;28;20961;-86
2022/05/01 10:11:14;;;;;;;17.50;12.50;;;18.40;48.60;;;;;;5009781;28;20512;-88
2022/05/01 10:13:43;;;;;;;15.03;11.73;;;18.70;49.20;;;;;;5023053;28;20441;-88
2022/05/01 10:16:11;;;;;;;15.90;12.40;;;18.70;49.00;;;;;;5005661;28;20469;-88
2022/05/01 10:18:40;;;;;;;16.27;13.00;;;18.90;46.90;;;;;;5003689;28;20454;-86
2022/05/01 10:21:07;;;;;;;18.00;12.53;;;18.70;47.80;;;;;;5026073;28;20786;-87
2022/05/01 10:23:35;;;;;;;15.37;12.73;;;18.50;49.20;;;;;;5014733;28;20454;-87
2022/05/01 10:26:10;;;;;;;13.80;12.40;;;18.50;49.60;;;;;;5023366;28;20489;-87
2022/05/01 10:29:11;;;;;;;13.87;11.97;;;18.90;50.10;;;;;;5009229;28;20504;-87
2022/05/01 10:32:22;;;;;;;13.73;12.27;;;19.10;47.60;;;;;;5040684;28;20438;-87
2022/05/01 10:35:16;;;;;;;19.50;11.70;;;19.10;48.00;;;;;;5023476;28;20631;-87
2022/05/01 10:38:06;;;;;;;13.87;11.90;;;19.70;49.30;;;;;;5018432;28;20461;-89
2022/05/01 10:40:34;;;;;;;12.63;11.30;;;20.50;49.90;;;;;;5023036;28;20433;-87
2022/05/01 10:43:22;;;;;;;15.83;12.60;;;21.00;46.60;;;;;;5025834;28;20528;-87
2022/05/01 10:45:53;;;;;;;21.40;13.37;;;20.70;47.90;;;;;;5030306;28;20465;-88
2022/05/01 10:48:30;;;;;;;17.17;11.43;;;20.90;46.10;;;;;;5032179;28;20438;-87
2022/05/01 10:51:43;;;;;;;13.97;11.70;;;21.10;46.20;;;;;;5041744;28;20556;-87
2022/05/01 10:54:36;;;;;;;13.50;11.67;;;20.90;44.10;;;;;;5011683;28;20977;-87
2022/05/01 10:57:12;;;;;;;17.10;13.07;;;21.00;45.70;;;;;;5019095;28;20463;-87
2022/05/01 10:59:43;;;;;;;14.20;12.73;;;20.80;44.40;;;;;;5025579;28;20525;-88
2022/05/01 11:02:31;;;;;;;17.00;12.40;;;20.90;45.40;;;;;;5026450;28;20461;-87
2022/05/01 11:05:00;;;;;;;13.20;11.30;;;21.20;46.70;;;;;;5033983;28;20484;-88
2022/05/01 11:07:29;;;;;;;13.83;11.77;;;21.10;45.30;;;;;;5033124;28;20486;-89
2022/05/01 11:09:59;;;;;;;13.83;12.17;;;20.60;45.50;;;;;;5017575;28;20462;-87
2022/05/01 11:12:27;;;;;;;15.50;13.17;;;20.60;45.80;;;;;;5037856;28;20549;-89
2022/05/01 11:14:56;;;;;;;13.67;11.37;;;20.30;46.60;;;;;;5032210;28;20465;-90
2022/05/01 11:17:50;;;;;;;14.40;12.90;;;20.40;47.20;;;;;;5017572;28;20477;-91
2022/05/01 11:20:31;;;;;;;16.83;12.50;;;21.00;46.90;;;;;;5020451;28;20453;-88
2022/05/01 11:23:43;;;;;;;15.67;11.70;;;21.80;46.20;;;;;;5018202;28;20477;-88
2022/05/01 11:26:18;;;;;;;16.17;12.90;;;21.70;43.30;;;;;;5037524;28;20473;-88
2022/05/01 11:28:47;;;;;;;16.60;11.07;;;21.60;44.40;;;;;;5010811;28;20951;-88
2022/05/01 11:31:57;;;;;;;18.07;12.93;;;21.60;44.50;;;;;;5019544;28;22585;-88
2022/05/01 11:34:50;;;;;;;13.30;10.70;;;21.50;44.10;;;;;;5022021;28;20494;-88
2022/05/01 11:37:17;;;;;;;14.33;11.30;;;21.70;42.80;;;;;;5012052;28;20503;-88
2022/05/01 11:40:23;;;;;;;13.30;11.37;;;21.60;43.10;;;;;;5011432;28;20443;-89
2022/05/01 11:42:52;;;;;;;14.20;11.87;;;21.40;45.00;;;;;;5035095;28;20446;-91
2022/05/01 11:45:21;;;;;;;16.97;13.30;;;21.40;46.40;;;;;;5003766;28;21332;-88
2022/05/01 11:47:50;;;;;;;16.30;12.77;;;21.30;45.50;;;;;;5015056;28;20442;-90
2022/05/01 11:50:20;;;;;;;14.87;12.40;;;21.40;45.60;;;;;;5013891;28;20529;-89
2022/05/01 11:52:50;;;;;;;17.13;14.37;;;21.20;45.00;;;;;;5029270;28;20453;-87
2022/05/01 11:55:20;;;;;;;12.20;10.47;;;21.30;45.10;;;;;;5027881;28;21346;-88
2022/05/01 12:03:31;;;;;;;16.73;12.97;;;21.00;43.70;;;;;;5026667;28;20437;-87
2022/05/01 12:05:58;;;;;;;16.53;13.83;;;20.80;44.90;;;;;;5007964;28;21055;-88
2022/05/01 12:08:25;;;;;;;19.03;12.13;;;20.90;44.90;;;;;;5026803;28;20541;-87
2022/05/01 12:10:52;;;;;;;14.57;12.47;;;21.20;44.10;;;;;;5017459;28;20466;-90
2022/05/01 12:13:22;;;;;;;16.90;13.47;;;21.40;44.10;;;;;;5026173;28;20541;-87
2022/05/01 12:15:50;;;;;;;15.20;13.23;;;21.60;45.20;;;;;;5015765;28;20471;-88
2022/05/01 12:18:17;;;;;;;15.70;13.00;;;21.60;44.10;;;;;;5022652;28;20485;-87
2022/05/01 12:20:44;;;;;;;14.53;11.97;;;21.50;45.20;;;;;;5039408;28;20450;-89
2022/05/01 12:23:13;;;;;;;14.00;11.40;;;21.90;46.20;;;;;;5013074;28;20459;-86
2022/05/01 12:25:41;;;;;;;15.83;11.83;;;22.10;44.20;;;;;;5035830;28;20473;-87
2022/05/01 12:28:10;;;;;;;16.20;11.67;;;22.50;45.00;;;;;;5023789;28;20445;-89
2022/05/01 12:30:39;;;;;;;14.20;11.90;;;22.40;44.30;;;;;;5019337;28;20552;-88
2022/05/01 12:33:06;;;;;;;13.73;11.00;;;22.30;43.30;;;;;;5036698;28;20461;-87
2022/05/01 12:35:54;;;;;;;20.60;10.70;;;22.00;44.40;;;;;;5015786;28;20459;-88
2022/05/01 12:38:21;;;;;;;15.67;11.70;;;22.50;44.40;;;;;;5036258;28;20485;-88
2022/05/01 12:43:52;;;;;;;15.37;12.30;;;22.20;44.30;;;;;;5003585;28;20438;-89
2022/05/01 12:46:24;;;;;;;17.70;13.00;;;21.90;43.70;;;;;;5036256;28;20843;-88
2022/05/01 12:48:52;;;;;;;16.23;11.93;;;21.90;45.30;;;;;;5024671;28;20965;-91
2022/05/01 12:51:19;;;;;;;16.17;12.40;;;21.90;45.20;;;;;;5000372;28;20462;-87
2022/05/01 12:53:46;;;;;;;13.33;11.87;;;22.00;44.60;;;;;;5035978;28;20458;-90
2022/05/01 12:56:20;;;;;;;17.27;12.90;;;22.40;45.20;;;;;;4997775;28;20611;-89
2022/05/01 12:58:48;;;;;;;14.23;12.73;;;22.40;43.40;;;;;;5020940;28;20458;-89
2022/05/01 13:01:27;;;;;;;15.43;12.50;;;22.10;43.40;;;;;;5021909;28;20453;-87
2022/05/01 13:03:55;;;;;;;18.97;12.70;;;21.90;46.10;;;;;;5037989;28;20480;-90
2022/05/01 13:06:24;;;;;;;15.27;12.60;;;22.20;44.50;;;;;;5036582;28;20478;-87
2022/05/01 13:09:07;;;;;;;15.70;12.70;;;22.60;43.90;;;;;;4991391;28;20972;-89